sensor_id;sensor_type;location;lat;lon;timestamp;P1;durP1;ratioP1;P2;durP2;ratioP2
19358;SDS011;9815;52.334;20.890;2023-06-01T00:02:19;5.80;;;3.17;;
19358;SDS011;9815;52.334;20.890;2023-06-01T00:04:49;6.53;;;3.00;;
19358;SDS011;9815;52.334;20.890;2023-06-01T00:07:17;8.30;;;3.20;;
19358;SDS011;9815;52.334;20.890;2023-06-01T00:09:45;8.10;;;3.47;;
19358;SDS011;9815;52.334;20.890;2023-06-01T00:12:13;8.00;;;3.20;;
19358;SDS011;9815;52.334;20.890;2023-06-01T00:14:42;8.50;;;3.50;;
19358;SDS011;9815;52.334;20.890;2023-06-01T00:17:10;9.30;;;3.07;;
19358;SDS011;9815;52.334;20.890;2023-06-01T00:19:38;6.73;;;3.13;;
19358;SDS011;9815;52.334;20.890;2023-06-01T00:22:08;11.20;;;3.40;;
19358;SDS011;9815;52.334;20.890;2023-06-01T00:24:37;6.17;;;3.23;;
19358;SDS011;9815;52.334;20.890;2023-06-01T00:27:05;6.70;;;3.20;;
19358;SDS011;9815;52.334;20.890;2023-06-01T00:29:34;6.40;;;3.37;;
19358;SDS011;9815;52.334;20.890;2023-06-01T00:32:02;9.03;;;3.10;;
19358;SDS011;9815;52.334;20.890;2023-06-01T00:34:30;9.90;;;3.53;;
19358;SDS011;9815;52.334;20.890;2023-06-01T00:36:58;8.90;;;3.30;;
19358;SDS011;9815;52.334;20.890;2023-06-01T00:39:28;5.63;;;3.17;;
19358;SDS011;9815;52.334;20.890;2023-06-01T00:41:56;6.97;;;3.30;;
19358;SDS011;9815;52.334;20.890;2023-06-01T00:44:24;6.70;;;3.40;;
19358;SDS011;9815;52.334;20.890;2023-06-01T00:46:52;7.07;;;3.40;;
19358;SDS011;9815;52.334;20.890;2023-06-01T00:49:21;7.90;;;3.23;;
19358;SDS011;9815;52.334;20.890;2023-06-01T00:51:50;8.13;;;3.47;;
19358;SDS011;9815;52.334;20.890;2023-06-01T00:54:18;8.00;;;3.37;;
19358;SDS011;9815;52.334;20.890;2023-06-01T00:56:48;8.13;;;3.00;;
19358;SDS011;9815;52.334;20.890;2023-06-01T00:59:17;8.33;;;3.77;;
19358;SDS011;9815;52.334;20.890;2023-06-01T01:01:45;8.20;;;3.20;;
19358;SDS011;9815;52.334;20.890;2023-06-01T01:04:13;8.53;;;3.50;;
19358;SDS011;9815;52.334;20.890;2023-06-01T01:06:53;7.67;;;3.00;;
19358;SDS011;9815;52.334;20.890;2023-06-01T01:09:32;5.43;;;3.03;;
19358;SDS011;9815;52.334;20.890;2023-06-01T01:12:10;7.47;;;3.17;;
19358;SDS011;9815;52.334;20.890;2023-06-01T01:14:49;8.53;;;3.40;;
19358;SDS011;9815;52.334;20.890;2023-06-01T01:17:22;7.23;;;2.87;;
19358;SDS011;9815;52.334;20.890;2023-06-01T01:19:59;6.00;;;3.30;;
19358;SDS011;9815;52.334;20.890;2023-06-01T01:22:42;7.67;;;2.80;;
19358;SDS011;9815;52.334;20.890;2023-06-01T01:25:32;5.33;;;3.13;;
19358;SDS011;9815;52.334;20.890;2023-06-01T01:28:23;6.33;;;3.10;;
19358;SDS011;9815;52.334;20.890;2023-06-01T01:31:01;4.87;;;3.00;;
19358;SDS011;9815;52.334;20.890;2023-06-01T01:33:32;5.27;;;2.97;;
19358;SDS011;9815;52.334;20.890;2023-06-01T01:36:02;6.77;;;2.93;;
19358;SDS011;9815;52.334;20.890;2023-06-01T01:38:33;7.00;;;3.03;;
19358;SDS011;9815;52.334;20.890;2023-06-01T01:41:02;5.53;;;3.20;;
19358;SDS011;9815;52.334;20.890;2023-06-01T01:43:32;5.90;;;3.20;;
19358;SDS011;9815;52.334;20.890;2023-06-01T01:46:03;5.70;;;3.10;;
19358;SDS011;9815;52.334;20.890;2023-06-01T01:48:39;4.90;;;2.83;;
19358;SDS011;9815;52.334;20.890;2023-06-01T01:51:14;6.23;;;3.00;;
19358;SDS011;9815;52.334;20.890;2023-06-01T01:53:47;6.53;;;3.10;;
19358;SDS011;9815;52.334;20.890;2023-06-01T01:56:18;6.23;;;3.07;;
19358;SDS011;9815;52.334;20.890;2023-06-01T01:58:48;9.67;;;3.00;;
19358;SDS011;9815;52.334;20.890;2023-06-01T02:01:17;5.47;;;2.90;;
19358;SDS011;9815;52.334;20.890;2023-06-01T02:03:46;4.90;;;2.93;;
19358;SDS011;9815;52.334;20.890;2023-06-01T02:06:24;6.93;;;2.80;;
19358;SDS011;9815;52.334;20.890;2023-06-01T02:08:52;4.90;;;2.57;;
19358;SDS011;9815;52.334;20.890;2023-06-01T02:11:21;7.80;;;3.03;;
19358;SDS011;9815;52.334;20.890;2023-06-01T02:13:51;6.37;;;3.10;;
19358;SDS011;9815;52.334;20.890;2023-06-01T02:16:19;5.60;;;3.10;;
19358;SDS011;9815;52.334;20.890;2023-06-01T02:18:48;6.17;;;3.10;;
19358;SDS011;9815;52.334;20.890;2023-06-01T02:21:16;11.43;;;3.07;;
19358;SDS011;9815;52.334;20.890;2023-06-01T02:23:45;4.93;;;2.87;;
19358;SDS011;9815;52.334;20.890;2023-06-01T02:26:13;5.90;;;3.40;;
19358;SDS011;9815;52.334;20.890;2023-06-01T02:28:43;6.23;;;2.97;;
19358;SDS011;9815;52.334;20.890;2023-06-01T02:31:14;6.60;;;2.80;;
19358;SDS011;9815;52.334;20.890;2023-06-01T02:33:42;7.40;;;2.87;;
19358;SDS011;9815;52.334;20.890;2023-06-01T02:36:10;5.13;;;2.97;;
19358;SDS011;9815;52.334;20.890;2023-06-01T02:38:39;9.93;;;3.07;;
19358;SDS011;9815;52.334;20.890;2023-06-01T02:41:07;6.27;;;3.00;;
19358;SDS011;9815;52.334;20.890;2023-06-01T02:43:35;7.47;;;3.00;;
19358;SDS011;9815;52.334;20.890;2023-06-01T02:46:04;6.50;;;3.10;;
19358;SDS011;9815;52.334;20.890;2023-06-01T02:48:37;5.30;;;3.00;;
19358;SDS011;9815;52.334;20.890;2023-06-01T02:51:07;9.13;;;2.83;;
19358;SDS011;9815;52.334;20.890;2023-06-01T02:53:35;5.53;;;2.83;;
19358;SDS011;9815;52.334;20.890;2023-06-01T02:56:09;7.43;;;2.97;;
19358;SDS011;9815;52.334;20.890;2023-06-01T02:58:47;6.10;;;3.43;;
19358;SDS011;9815;52.334;20.890;2023-06-01T03:01:28;5.37;;;2.97;;
19358;SDS011;9815;52.334;20.890;2023-06-01T03:04:04;6.93;;;2.87;;
19358;SDS011;9815;52.334;20.890;2023-06-01T03:06:34;9.77;;;3.13;;
19358;SDS011;9815;52.334;20.890;2023-06-01T03:09:23;5.30;;;2.90;;
19358;SDS011;9815;52.334;20.890;2023-06-01T03:11:57;5.47;;;2.73;;
19358;SDS011;9815;52.334;20.890;2023-06-01T03:14:28;5.93;;;2.80;;
19358;SDS011;9815;52.334;20.890;2023-06-01T03:16:57;7.27;;;2.93;;
19358;SDS011;9815;52.334;20.890;2023-06-01T03:19:26;7.10;;;3.27;;
19358;SDS011;9815;52.334;20.890;2023-06-01T03:21:57;5.17;;;3.27;;
19358;SDS011;9815;52.334;20.890;2023-06-01T03:24:25;6.77;;;2.70;;
19358;SDS011;9815;52.334;20.890;2023-06-01T03:26:58;6.27;;;2.80;;
19358;SDS011;9815;52.334;20.890;2023-06-01T03:29:29;6.00;;;2.83;;
19358;SDS011;9815;52.334;20.890;2023-06-01T03:31:57;8.17;;;3.10;;
19358;SDS011;9815;52.334;20.890;2023-06-01T03:34:28;6.87;;;3.33;;
19358;SDS011;9815;52.334;20.890;2023-06-01T03:36:59;4.53;;;2.70;;
19358;SDS011;9815;52.334;20.890;2023-06-01T03:39:27;5.33;;;3.10;;
19358;SDS011;9815;52.334;20.890;2023-06-01T03:41:56;6.03;;;3.07;;
19358;SDS011;9815;52.334;20.890;2023-06-01T03:44:25;5.83;;;3.20;;
19358;SDS011;9815;52.334;20.890;2023-06-01T03:46:53;5.93;;;3.00;;
19358;SDS011;9815;52.334;20.890;2023-06-01T03:49:21;5.77;;;3.33;;
19358;SDS011;9815;52.334;20.890;2023-06-01T03:51:51;6.90;;;3.40;;
19358;SDS011;9815;52.334;20.890;2023-06-01T03:54:19;5.83;;;3.30;;
19358;SDS011;9815;52.334;20.890;2023-06-01T03:56:49;7.53;;;2.93;;
19358;SDS011;9815;52.334;20.890;2023-06-01T03:59:17;5.23;;;3.40;;
19358;SDS011;9815;52.334;20.890;2023-06-01T04:01:45;10.67;;;3.17;;
19358;SDS011;9815;52.334;20.890;2023-06-01T04:04:16;5.60;;;3.43;;
19358;SDS011;9815;52.334;20.890;2023-06-01T04:06:45;6.20;;;3.10;;
19358;SDS011;9815;52.334;20.890;2023-06-01T04:09:17;9.03;;;3.57;;
19358;SDS011;9815;52.334;20.890;2023-06-01T04:11:48;8.30;;;3.40;;
19358;SDS011;9815;52.334;20.890;2023-06-01T04:14:16;10.93;;;3.90;;
19358;SDS011;9815;52.334;20.890;2023-06-01T04:16:44;8.10;;;3.17;;
19358;SDS011;9815;52.334;20.890;2023-06-01T04:19:12;6.97;;;3.30;;
19358;SDS011;9815;52.334;20.890;2023-06-01T04:21:41;7.13;;;3.60;;
19358;SDS011;9815;52.334;20.890;2023-06-01T04:24:12;8.23;;;3.23;;
19358;SDS011;9815;52.334;20.890;2023-06-01T04:26:41;6.33;;;3.30;;
19358;SDS011;9815;52.334;20.890;2023-06-01T04:29:11;9.70;;;3.67;;
19358;SDS011;9815;52.334;20.890;2023-06-01T04:31:39;7.43;;;3.70;;
19358;SDS011;9815;52.334;20.890;2023-06-01T04:34:07;6.03;;;3.10;;
19358;SDS011;9815;52.334;20.890;2023-06-01T04:36:36;7.03;;;3.43;;
19358;SDS011;9815;52.334;20.890;2023-06-01T04:39:07;8.80;;;3.70;;
19358;SDS011;9815;52.334;20.890;2023-06-01T04:41:36;7.10;;;3.40;;
19358;SDS011;9815;52.334;20.890;2023-06-01T04:44:06;9.00;;;3.63;;
19358;SDS011;9815;52.334;20.890;2023-06-01T04:46:35;9.67;;;3.50;;
19358;SDS011;9815;52.334;20.890;2023-06-01T04:49:07;6.90;;;3.47;;
19358;SDS011;9815;52.334;20.890;2023-06-01T04:51:38;11.73;;;3.90;;
19358;SDS011;9815;52.334;20.890;2023-06-01T04:54:07;8.00;;;3.50;;
19358;SDS011;9815;52.334;20.890;2023-06-01T04:56:35;7.67;;;3.37;;
19358;SDS011;9815;52.334;20.890;2023-06-01T04:59:05;10.60;;;3.57;;
19358;SDS011;9815;52.334;20.890;2023-06-01T05:01:34;10.67;;;4.93;;
19358;SDS011;9815;52.334;20.890;2023-06-01T05:04:04;9.17;;;3.70;;
19358;SDS011;9815;52.334;20.890;2023-06-01T05:06:32;7.93;;;3.50;;
19358;SDS011;9815;52.334;20.890;2023-06-01T05:09:00;9.27;;;3.73;;
19358;SDS011;9815;52.334;20.890;2023-06-01T05:11:31;9.23;;;3.40;;
19358;SDS011;9815;52.334;20.890;2023-06-01T05:13:59;6.60;;;3.70;;
19358;SDS011;9815;52.334;20.890;2023-06-01T05:16:32;8.27;;;3.87;;
19358;SDS011;9815;52.334;20.890;2023-06-01T05:19:01;12.83;;;4.10;;
19358;SDS011;9815;52.334;20.890;2023-06-01T05:21:30;8.77;;;3.70;;
19358;SDS011;9815;52.334;20.890;2023-06-01T05:23:59;10.33;;;3.80;;
19358;SDS011;9815;52.334;20.890;2023-06-01T05:26:27;9.00;;;3.50;;
19358;SDS011;9815;52.334;20.890;2023-06-01T05:28:56;7.53;;;3.63;;
19358;SDS011;9815;52.334;20.890;2023-06-01T05:31:25;4.90;;;3.10;;
19358;SDS011;9815;52.334;20.890;2023-06-01T05:33:56;8.47;;;3.60;;
19358;SDS011;9815;52.334;20.890;2023-06-01T05:36:29;10.13;;;3.40;;
19358;SDS011;9815;52.334;20.890;2023-06-01T05:38:59;9.27;;;3.40;;
19358;SDS011;9815;52.334;20.890;2023-06-01T05:41:27;7.43;;;3.37;;
19358;SDS011;9815;52.334;20.890;2023-06-01T05:43:56;8.17;;;3.00;;
19358;SDS011;9815;52.334;20.890;2023-06-01T05:46:24;5.80;;;3.10;;
19358;SDS011;9815;52.334;20.890;2023-06-01T05:48:52;6.60;;;3.57;;
19358;SDS011;9815;52.334;20.890;2023-06-01T05:51:23;8.97;;;3.30;;
19358;SDS011;9815;52.334;20.890;2023-06-01T05:53:51;4.80;;;3.00;;
19358;SDS011;9815;52.334;20.890;2023-06-01T05:56:19;9.97;;;3.53;;
19358;SDS011;9815;52.334;20.890;2023-06-01T05:58:48;6.50;;;3.20;;
19358;SDS011;9815;52.334;20.890;2023-06-01T06:01:20;7.03;;;3.17;;
19358;SDS011;9815;52.334;20.890;2023-06-01T06:03:48;9.10;;;3.47;;
19358;SDS011;9815;52.334;20.890;2023-06-01T06:06:17;7.80;;;3.07;;
19358;SDS011;9815;52.334;20.890;2023-06-01T06:08:51;8.00;;;3.10;;
19358;SDS011;9815;52.334;20.890;2023-06-01T06:11:19;5.00;;;2.67;;
19358;SDS011;9815;52.334;20.890;2023-06-01T06:13:49;6.97;;;3.20;;
19358;SDS011;9815;52.334;20.890;2023-06-01T06:16:17;9.20;;;3.50;;
19358;SDS011;9815;52.334;20.890;2023-06-01T06:18:46;8.67;;;3.40;;
19358;SDS011;9815;52.334;20.890;2023-06-01T06:21:14;9.77;;;3.13;;
19358;SDS011;9815;52.334;20.890;2023-06-01T06:23:45;8.10;;;2.93;;
19358;SDS011;9815;52.334;20.890;2023-06-01T06:26:15;9.07;;;2.80;;
19358;SDS011;9815;52.334;20.890;2023-06-01T06:28:43;7.40;;;2.83;;
19358;SDS011;9815;52.334;20.890;2023-06-01T06:31:11;5.67;;;2.50;;
19358;SDS011;9815;52.334;20.890;2023-06-01T06:33:40;6.10;;;2.83;;
19358;SDS011;9815;52.334;20.890;2023-06-01T06:36:08;7.93;;;2.90;;
19358;SDS011;9815;52.334;20.890;2023-06-01T06:38:36;7.13;;;2.87;;
19358;SDS011;9815;52.334;20.890;2023-06-01T06:41:04;5.40;;;2.70;;
19358;SDS011;9815;52.334;20.890;2023-06-01T06:43:36;7.23;;;2.80;;
19358;SDS011;9815;52.334;20.890;2023-06-01T06:46:04;4.70;;;2.77;;
19358;SDS011;9815;52.334;20.890;2023-06-01T06:48:32;5.70;;;2.83;;
19358;SDS011;9815;52.334;20.890;2023-06-01T06:51:00;5.63;;;2.73;;
19358;SDS011;9815;52.334;20.890;2023-06-01T06:53:30;4.80;;;2.57;;
19358;SDS011;9815;52.334;20.890;2023-06-01T06:55:59;7.27;;;2.80;;
19358;SDS011;9815;52.334;20.890;2023-06-01T06:58:28;6.70;;;2.43;;
19358;SDS011;9815;52.334;20.890;2023-06-01T07:00:57;5.43;;;2.50;;
19358;SDS011;9815;52.334;20.890;2023-06-01T07:03:26;6.90;;;2.53;;
19358;SDS011;9815;52.334;20.890;2023-06-01T07:05:54;7.63;;;2.23;;
19358;SDS011;9815;52.334;20.890;2023-06-01T07:08:22;6.80;;;2.30;;
19358;SDS011;9815;52.334;20.890;2023-06-01T07:10:50;5.40;;;2.43;;
19358;SDS011;9815;52.334;20.890;2023-06-01T07:13:20;4.63;;;2.33;;
19358;SDS011;9815;52.334;20.890;2023-06-01T07:15:48;5.83;;;2.30;;
19358;SDS011;9815;52.334;20.890;2023-06-01T07:18:17;4.97;;;2.30;;
19358;SDS011;9815;52.334;20.890;2023-06-01T07:20:46;9.20;;;2.57;;
19358;SDS011;9815;52.334;20.890;2023-06-01T07:23:14;6.97;;;2.43;;
19358;SDS011;9815;52.334;20.890;2023-06-01T07:25:42;8.60;;;3.30;;
19358;SDS011;9815;52.334;20.890;2023-06-01T07:28:11;5.73;;;2.63;;
19358;SDS011;9815;52.334;20.890;2023-06-01T07:30:39;7.23;;;2.17;;
19358;SDS011;9815;52.334;20.890;2023-06-01T07:33:08;6.20;;;2.10;;
19358;SDS011;9815;52.334;20.890;2023-06-01T07:35:37;4.67;;;2.00;;
19358;SDS011;9815;52.334;20.890;2023-06-01T07:38:06;6.83;;;2.10;;
19358;SDS011;9815;52.334;20.890;2023-06-01T07:40:34;5.67;;;2.30;;
19358;SDS011;9815;52.334;20.890;2023-06-01T07:43:02;5.33;;;2.00;;
19358;SDS011;9815;52.334;20.890;2023-06-01T07:45:31;7.17;;;2.03;;
19358;SDS011;9815;52.334;20.890;2023-06-01T07:47:59;4.63;;;2.13;;
19358;SDS011;9815;52.334;20.890;2023-06-01T07:50:27;4.70;;;2.10;;
19358;SDS011;9815;52.334;20.890;2023-06-01T07:52:59;4.90;;;1.83;;
19358;SDS011;9815;52.334;20.890;2023-06-01T07:55:27;3.77;;;2.10;;
19358;SDS011;9815;52.334;20.890;2023-06-01T07:57:55;5.97;;;1.93;;
19358;SDS011;9815;52.334;20.890;2023-06-01T08:00:27;3.93;;;1.97;;
19358;SDS011;9815;52.334;20.890;2023-06-01T08:02:55;3.53;;;2.13;;
19358;SDS011;9815;52.334;20.890;2023-06-01T08:05:25;3.77;;;2.20;;
19358;SDS011;9815;52.334;20.890;2023-06-01T08:07:53;6.00;;;2.30;;
19358;SDS011;9815;52.334;20.890;2023-06-01T08:10:24;4.70;;;1.93;;
19358;SDS011;9815;52.334;20.890;2023-06-01T08:12:52;5.30;;;1.83;;
19358;SDS011;9815;52.334;20.890;2023-06-01T08:15:22;7.40;;;1.90;;
19358;SDS011;9815;52.334;20.890;2023-06-01T08:17:52;2.97;;;1.80;;
19358;SDS011;9815;52.334;20.890;2023-06-01T08:20:20;4.28;;;2.38;;
19358;SDS011;9815;52.334;20.890;2023-06-01T08:22:49;4.20;;;1.75;;
19358;SDS011;9815;52.334;20.890;2023-06-01T08:25:18;4.28;;;1.92;;
19358;SDS011;9815;52.334;20.890;2023-06-01T08:27:48;6.57;;;1.70;;
19358;SDS011;9815;52.334;20.890;2023-06-01T08:30:18;5.32;;;1.67;;
19358;SDS011;9815;52.334;20.890;2023-06-01T08:32:46;10.85;;;2.08;;
19358;SDS011;9815;52.334;20.890;2023-06-01T08:35:15;8.00;;;1.73;;
19358;SDS011;9815;52.334;20.890;2023-06-01T08:37:43;4.00;;;1.75;;
19358;SDS011;9815;52.334;20.890;2023-06-01T08:40:12;4.68;;;1.90;;
19358;SDS011;9815;52.334;20.890;2023-06-01T08:42:43;6.60;;;1.70;;
19358;SDS011;9815;52.334;20.890;2023-06-01T08:45:22;4.00;;;1.77;;
19358;SDS011;9815;52.334;20.890;2023-06-01T08:47:53;4.28;;;1.88;;
19358;SDS011;9815;52.334;20.890;2023-06-01T08:50:22;8.80;;;2.10;;
19358;SDS011;9815;52.334;20.890;2023-06-01T08:52:53;5.72;;;2.05;;
19358;SDS011;9815;52.334;20.890;2023-06-01T08:55:25;3.90;;;1.88;;
19358;SDS011;9815;52.334;20.890;2023-06-01T08:57:55;3.05;;;1.73;;
19358;SDS011;9815;52.334;20.890;2023-06-01T09:00:26;8.38;;;2.30;;
19358;SDS011;9815;52.334;20.890;2023-06-01T09:02:56;5.25;;;1.95;;
19358;SDS011;9815;52.334;20.890;2023-06-01T09:05:25;4.28;;;1.95;;
19358;SDS011;9815;52.334;20.890;2023-06-01T09:07:53;8.35;;;2.38;;
19358;SDS011;9815;52.334;20.890;2023-06-01T09:10:22;6.50;;;2.10;;
19358;SDS011;9815;52.334;20.890;2023-06-01T09:12:51;6.15;;;1.90;;
19358;SDS011;9815;52.334;20.890;2023-06-01T09:15:20;4.75;;;2.15;;
19358;SDS011;9815;52.334;20.890;2023-06-01T09:18:04;5.10;;;2.30;;
19358;SDS011;9815;52.334;20.890;2023-06-01T09:20:33;3.22;;;2.15;;
19358;SDS011;9815;52.334;20.890;2023-06-01T09:23:03;5.10;;;2.03;;
19358;SDS011;9815;52.334;20.890;2023-06-01T09:25:32;3.30;;;1.92;;
19358;SDS011;9815;52.334;20.890;2023-06-01T09:28:01;4.25;;;2.00;;
19358;SDS011;9815;52.334;20.890;2023-06-01T09:33:17;4.53;;;2.17;;
19358;SDS011;9815;52.334;20.890;2023-06-01T09:35:48;5.00;;;2.10;;
19358;SDS011;9815;52.334;20.890;2023-06-01T09:38:19;4.75;;;2.00;;
19358;SDS011;9815;52.334;20.890;2023-06-01T09:40:55;7.28;;;2.03;;
19358;SDS011;9815;52.334;20.890;2023-06-01T09:43:24;6.75;;;2.25;;
19358;SDS011;9815;52.334;20.890;2023-06-01T09:46:05;4.68;;;2.22;;
19358;SDS011;9815;52.334;20.890;2023-06-01T09:48:35;5.80;;;1.98;;
19358;SDS011;9815;52.334;20.890;2023-06-01T09:51:04;6.40;;;2.28;;
19358;SDS011;9815;52.334;20.890;2023-06-01T09:53:41;4.38;;;2.10;;
19358;SDS011;9815;52.334;20.890;2023-06-01T09:56:09;4.07;;;2.00;;
19358;SDS011;9815;52.334;20.890;2023-06-01T09:58:38;11.32;;;2.30;;
19358;SDS011;9815;52.334;20.890;2023-06-01T10:01:07;5.93;;;2.20;;
19358;SDS011;9815;52.334;20.890;2023-06-01T10:03:38;7.60;;;2.30;;
19358;SDS011;9815;52.334;20.890;2023-06-01T10:06:10;6.95;;;2.20;;
19358;SDS011;9815;52.334;20.890;2023-06-01T10:08:39;4.30;;;1.92;;
19358;SDS011;9815;52.334;20.890;2023-06-01T10:11:10;4.88;;;2.05;;
19358;SDS011;9815;52.334;20.890;2023-06-01T10:13:38;6.45;;;2.25;;
19358;SDS011;9815;52.334;20.890;2023-06-01T10:16:07;3.63;;;1.80;;
19358;SDS011;9815;52.334;20.890;2023-06-01T10:18:39;6.47;;;2.33;;
19358;SDS011;9815;52.334;20.890;2023-06-01T10:21:08;3.83;;;1.90;;
19358;SDS011;9815;52.334;20.890;2023-06-01T10:23:37;6.40;;;1.92;;
19358;SDS011;9815;52.334;20.890;2023-06-01T10:26:06;3.97;;;1.92;;
19358;SDS011;9815;52.334;20.890;2023-06-01T10:28:38;4.95;;;2.20;;
19358;SDS011;9815;52.334;20.890;2023-06-01T10:34:01;8.73;;;2.58;;
19358;SDS011;9815;52.334;20.890;2023-06-01T10:39:35;5.35;;;2.10;;
19358;SDS011;9815;52.334;20.890;2023-06-01T10:48:04;3.85;;;2.13;;
19358;SDS011;9815;52.334;20.890;2023-06-01T10:50:34;5.70;;;2.47;;
19358;SDS011;9815;52.334;20.890;2023-06-01T11:01:41;4.95;;;2.38;;
19358;SDS011;9815;52.334;20.890;2023-06-01T11:04:11;5.50;;;2.00;;
19358;SDS011;9815;52.334;20.890;2023-06-01T11:06:41;4.20;;;2.30;;
19358;SDS011;9815;52.334;20.890;2023-06-01T11:09:12;6.53;;;2.60;;
19358;SDS011;9815;52.334;20.890;2023-06-01T11:11:58;7.90;;;2.45;;
19358;SDS011;9815;52.334;20.890;2023-06-01T11:14:28;10.20;;;2.65;;
19358;SDS011;9815;52.334;20.890;2023-06-01T11:19:59;5.65;;;1.80;;
19358;SDS011;9815;52.334;20.890;2023-06-01T11:22:55;6.40;;;2.08;;
19358;SDS011;9815;52.334;20.890;2023-06-01T11:25:24;6.20;;;2.00;;
19358;SDS011;9815;52.334;20.890;2023-06-01T11:27:54;5.78;;;2.40;;
19358;SDS011;9815;52.334;20.890;2023-06-01T11:30:22;5.28;;;1.98;;
19358;SDS011;9815;52.334;20.890;2023-06-01T11:32:51;6.55;;;2.30;;
19358;SDS011;9815;52.334;20.890;2023-06-01T11:35:21;3.88;;;2.17;;
19358;SDS011;9815;52.334;20.890;2023-06-01T11:37:55;3.78;;;2.22;;
19358;SDS011;9815;52.334;20.890;2023-06-01T11:40:23;7.18;;;2.42;;
19358;SDS011;9815;52.334;20.890;2023-06-01T11:42:57;8.77;;;2.45;;
19358;SDS011;9815;52.334;20.890;2023-06-01T11:45:25;4.32;;;2.00;;
19358;SDS011;9815;52.334;20.890;2023-06-01T11:47:55;3.75;;;1.92;;
19358;SDS011;9815;52.334;20.890;2023-06-01T11:50:23;3.30;;;1.70;;
19358;SDS011;9815;52.334;20.890;2023-06-01T11:53:00;6.25;;;2.60;;
19358;SDS011;9815;52.334;20.890;2023-06-01T11:55:28;4.88;;;2.13;;
19358;SDS011;9815;52.334;20.890;2023-06-01T11:57:59;4.85;;;2.60;;
19358;SDS011;9815;52.334;20.890;2023-06-01T12:00:27;3.97;;;2.13;;
19358;SDS011;9815;52.334;20.890;2023-06-01T12:03:06;4.97;;;2.10;;
19358;SDS011;9815;52.334;20.890;2023-06-01T12:05:39;4.82;;;2.42;;
19358;SDS011;9815;52.334;20.890;2023-06-01T12:08:13;7.60;;;2.58;;
19358;SDS011;9815;52.334;20.890;2023-06-01T12:10:43;4.47;;;2.10;;
19358;SDS011;9815;52.334;20.890;2023-06-01T12:13:13;5.43;;;2.33;;
19358;SDS011;9815;52.334;20.890;2023-06-01T12:15:41;2.83;;;2.05;;
19358;SDS011;9815;52.334;20.890;2023-06-01T12:18:10;5.43;;;2.35;;
19358;SDS011;9815;52.334;20.890;2023-06-01T12:20:39;7.40;;;2.17;;
19358;SDS011;9815;52.334;20.890;2023-06-01T12:23:12;4.80;;;2.25;;
19358;SDS011;9815;52.334;20.890;2023-06-01T12:25:49;4.80;;;2.15;;
19358;SDS011;9815;52.334;20.890;2023-06-01T12:28:18;5.65;;;2.42;;
19358;SDS011;9815;52.334;20.890;2023-06-01T12:30:46;6.53;;;1.98;;
19358;SDS011;9815;52.334;20.890;2023-06-01T12:33:33;6.35;;;2.08;;
19358;SDS011;9815;52.334;20.890;2023-06-01T12:36:04;8.35;;;2.40;;
19358;SDS011;9815;52.334;20.890;2023-06-01T12:38:40;3.75;;;1.98;;
19358;SDS011;9815;52.334;20.890;2023-06-01T12:41:31;5.65;;;2.05;;
19358;SDS011;9815;52.334;20.890;2023-06-01T12:44:09;4.75;;;2.55;;
19358;SDS011;9815;52.334;20.890;2023-06-01T12:46:56;5.90;;;2.10;;
19358;SDS011;9815;52.334;20.890;2023-06-01T12:49:29;4.28;;;2.13;;
19358;SDS011;9815;52.334;20.890;2023-06-01T12:51:58;6.05;;;2.10;;
19358;SDS011;9815;52.334;20.890;2023-06-01T12:54:29;3.70;;;2.10;;
19358;SDS011;9815;52.334;20.890;2023-06-01T12:56:58;7.03;;;2.20;;
19358;SDS011;9815;52.334;20.890;2023-06-01T12:59:26;4.72;;;2.20;;
19358;SDS011;9815;52.334;20.890;2023-06-01T13:01:54;4.30;;;2.30;;
19358;SDS011;9815;52.334;20.890;2023-06-01T13:04:22;14.10;;;2.47;;
19358;SDS011;9815;52.334;20.890;2023-06-01T13:06:51;6.80;;;2.28;;
19358;SDS011;9815;52.334;20.890;2023-06-01T13:09:19;3.30;;;1.95;;
19358;SDS011;9815;52.334;20.890;2023-06-01T13:11:49;3.22;;;1.98;;
19358;SDS011;9815;52.334;20.890;2023-06-01T13:14:17;5.22;;;2.15;;
19358;SDS011;9815;52.334;20.890;2023-06-01T13:16:45;5.28;;;1.90;;
19358;SDS011;9815;52.334;20.890;2023-06-01T13:19:14;7.50;;;2.33;;
19358;SDS011;9815;52.334;20.890;2023-06-01T13:21:42;5.38;;;2.13;;
19358;SDS011;9815;52.334;20.890;2023-06-01T13:24:11;4.95;;;2.50;;
19358;SDS011;9815;52.334;20.890;2023-06-01T13:26:39;5.55;;;2.20;;
19358;SDS011;9815;52.334;20.890;2023-06-01T13:29:09;6.25;;;2.10;;
19358;SDS011;9815;52.334;20.890;2023-06-01T13:31:38;2.72;;;1.90;;
19358;SDS011;9815;52.334;20.890;2023-06-01T13:34:06;5.57;;;2.10;;
19358;SDS011;9815;52.334;20.890;2023-06-01T13:36:34;3.63;;;2.22;;
19358;SDS011;9815;52.334;20.890;2023-06-01T13:39:02;5.72;;;2.38;;
19358;SDS011;9815;52.334;20.890;2023-06-01T13:41:31;7.20;;;2.00;;
19358;SDS011;9815;52.334;20.890;2023-06-01T13:43:59;4.00;;;2.25;;
19358;SDS011;9815;52.334;20.890;2023-06-01T13:46:29;5.43;;;2.20;;
19358;SDS011;9815;52.334;20.890;2023-06-01T13:48:58;4.18;;;2.35;;
19358;SDS011;9815;52.334;20.890;2023-06-01T13:51:27;4.55;;;2.03;;
19358;SDS011;9815;52.334;20.890;2023-06-01T13:53:55;4.78;;;1.95;;
19358;SDS011;9815;52.334;20.890;2023-06-01T13:56:24;3.13;;;2.05;;
19358;SDS011;9815;52.334;20.890;2023-06-01T13:58:52;3.90;;;2.10;;
19358;SDS011;9815;52.334;20.890;2023-06-01T14:01:23;5.78;;;2.25;;
19358;SDS011;9815;52.334;20.890;2023-06-01T14:03:52;5.65;;;2.30;;
19358;SDS011;9815;52.334;20.890;2023-06-01T14:06:22;6.45;;;2.35;;
19358;SDS011;9815;52.334;20.890;2023-06-01T14:08:50;6.30;;;2.40;;
19358;SDS011;9815;52.334;20.890;2023-06-01T14:11:18;4.10;;;2.25;;
19358;SDS011;9815;52.334;20.890;2023-06-01T14:13:46;3.97;;;2.25;;
19358;SDS011;9815;52.334;20.890;2023-06-01T14:16:15;4.95;;;2.22;;
19358;SDS011;9815;52.334;20.890;2023-06-01T14:18:43;5.68;;;2.25;;
19358;SDS011;9815;52.334;20.890;2023-06-01T14:21:12;6.70;;;2.20;;
19358;SDS011;9815;52.334;20.890;2023-06-01T14:23:41;6.38;;;2.58;;
19358;SDS011;9815;52.334;20.890;2023-06-01T14:26:11;5.60;;;2.08;;
19358;SDS011;9815;52.334;20.890;2023-06-01T14:28:39;5.28;;;2.05;;
19358;SDS011;9815;52.334;20.890;2023-06-01T14:31:07;9.30;;;2.38;;
19358;SDS011;9815;52.334;20.890;2023-06-01T14:33:35;4.57;;;2.08;;
19358;SDS011;9815;52.334;20.890;2023-06-01T14:36:03;3.92;;;1.95;;
19358;SDS011;9815;52.334;20.890;2023-06-01T14:38:33;3.67;;;2.30;;
19358;SDS011;9815;52.334;20.890;2023-06-01T14:41:01;4.35;;;2.20;;
19358;SDS011;9815;52.334;20.890;2023-06-01T14:43:30;6.95;;;2.15;;
19358;SDS011;9815;52.334;20.890;2023-06-01T14:45:58;4.28;;;1.85;;
19358;SDS011;9815;52.334;20.890;2023-06-01T14:48:27;3.72;;;1.70;;
19358;SDS011;9815;52.334;20.890;2023-06-01T14:50:55;3.88;;;2.08;;
19358;SDS011;9815;52.334;20.890;2023-06-01T14:53:23;4.15;;;2.17;;
19358;SDS011;9815;52.334;20.890;2023-06-01T14:55:53;6.90;;;2.20;;
19358;SDS011;9815;52.334;20.890;2023-06-01T14:58:21;4.47;;;2.13;;
19358;SDS011;9815;52.334;20.890;2023-06-01T15:00:49;8.60;;;2.00;;
19358;SDS011;9815;52.334;20.890;2023-06-01T15:03:21;4.13;;;1.90;;
19358;SDS011;9815;52.334;20.890;2023-06-01T15:05:49;10.57;;;2.95;;
19358;SDS011;9815;52.334;20.890;2023-06-01T15:08:18;5.22;;;1.95;;
19358;SDS011;9815;52.334;20.890;2023-06-01T15:10:47;7.25;;;2.03;;
19358;SDS011;9815;52.334;20.890;2023-06-01T15:13:16;6.18;;;2.10;;
19358;SDS011;9815;52.334;20.890;2023-06-01T15:15:44;4.68;;;2.15;;
19358;SDS011;9815;52.334;20.890;2023-06-01T15:18:12;5.35;;;2.17;;
19358;SDS011;9815;52.334;20.890;2023-06-01T15:20:40;6.15;;;2.20;;
19358;SDS011;9815;52.334;20.890;2023-06-01T15:23:09;4.32;;;1.90;;
19358;SDS011;9815;52.334;20.890;2023-06-01T15:25:37;7.57;;;2.08;;
19358;SDS011;9815;52.334;20.890;2023-06-01T15:28:06;7.45;;;2.10;;
19358;SDS011;9815;52.334;20.890;2023-06-01T15:30:35;5.88;;;2.28;;
19358;SDS011;9815;52.334;20.890;2023-06-01T15:33:03;3.00;;;1.70;;